Time;durP1;ratioP1;P1;durP2;ratioP2;P2;SDS_P1;SDS_P2;PMS_P1;PMS_P2;Temp;Humidity;BMP_temperature;BMP_pressure;BME280_temperature;BME280_humidity;BME280_pressure;Samples;Min_cycle;Max_cycle;Signal;HPM_P1;HPM_P2
2022/07/24 04:01:13;;;;;;;13.83;12.30;;;20.80;99.90;;;;;;5661130;23;20526;-74
2022/07/24 04:03:40;;;;;;;14.70;13.20;;;20.80;99.90;;;;;;4985547;28;20458;-74
2022/07/24 04:06:07;;;;;;;14.57;13.10;;;20.80;99.90;;;;;;4988619;28;20470;-73
2022/07/24 04:08:34;;;;;;;16.67;13.27;;;20.70;99.90;;;;;;4989457;28;21006;-73
2022/07/24 04:11:01;;;;;;;14.63;12.60;;;20.80;99.90;;;;;;4989805;28;20559;-73
2022/07/24 04:13:30;;;;;;;17.00;13.73;;;20.70;99.90;;;;;;4989615;28;20497;-73
2022/07/24 04:15:58;;;;;;;15.37;13.30;;;20.70;99.90;;;;;;4988845;28;20837;-73
2022/07/24 04:18:27;;;;;;;18.53;12.67;;;20.70;99.90;;;;;;4989670;28;20463;-73
2022/07/24 04:20:54;;;;;;;13.67;12.37;;;20.60;99.90;;;;;;4988261;28;20487;-73
2022/07/24 04:23:21;;;;;;;14.47;12.90;;;20.60;99.90;;;;;;4989857;28;20879;-73
2022/07/24 04:25:47;;;;;;;13.60;12.17;;;20.60;99.90;;;;;;4989229;28;20486;-73
2022/07/24 04:28:14;;;;;;;15.70;13.50;;;20.60;99.90;;;;;;4990109;28;20478;-73
2022/07/24 04:30:41;;;;;;;14.47;12.97;;;20.60;99.90;;;;;;4989631;28;20485;-73
2022/07/24 04:33:08;;;;;;;14.60;12.43;;;20.60;99.90;;;;;;4988207;28;20519;-73
2022/07/24 04:35:36;;;;;;;16.57;13.20;;;20.60;99.90;;;;;;4988546;28;20456;-73
2022/07/24 04:38:03;;;;;;;14.40;12.30;;;20.50;99.90;;;;;;4989807;28;20659;-73
2022/07/24 04:40:30;;;;;;;13.63;12.30;;;20.50;99.90;;;;;;4989468;28;20467;-73
2022/07/24 04:42:57;;;;;;;14.63;12.97;;;20.50;99.90;;;;;;4989733;28;20467;-73
2022/07/24 04:45:24;;;;;;;14.87;13.37;;;20.50;99.90;;;;;;4988845;28;20470;-73
2022/07/24 04:47:51;;;;;;;14.27;11.97;;;20.50;99.90;;;;;;4989298;28;20470;-73
2022/07/24 04:50:17;;;;;;;13.97;12.50;;;20.50;99.90;;;;;;4988986;28;20992;-75
2022/07/24 04:52:46;;;;;;;14.23;12.60;;;20.50;99.90;;;;;;4989011;28;20692;-74
2022/07/24 04:55:13;;;;;;;14.83;13.33;;;20.50;99.90;;;;;;4988690;28;20460;-74
2022/07/24 04:57:40;;;;;;;14.00;12.50;;;20.50;99.90;;;;;;4989321;28;20571;-74
2022/07/24 05:00:10;;;;;;;14.30;12.80;;;20.50;99.90;;;;;;4989082;28;20467;-68
2022/07/24 05:02:37;;;;;;;14.87;13.13;;;20.50;99.90;;;;;;4988622;28;20467;-68
2022/07/24 05:05:04;;;;;;;14.50;13.10;;;20.50;99.90;;;;;;4988343;28;20470;-68
2022/07/24 05:07:31;;;;;;;13.97;12.57;;;20.50;99.90;;;;;;4988803;28;20976;-68
2022/07/24 05:09:59;;;;;;;14.13;12.63;;;20.50;99.90;;;;;;4989267;28;20475;-68
2022/07/24 05:12:27;;;;;;;14.83;13.30;;;20.50;99.90;;;;;;4988775;28;20488;-68
2022/07/24 05:14:54;;;;;;;16.30;12.90;;;20.50;99.90;;;;;;4988149;28;20464;-68
2022/07/24 05:17:21;;;;;;;14.20;11.87;;;20.50;99.90;;;;;;4987707;28;20994;-68
2022/07/24 05:19:48;;;;;;;16.00;13.53;;;20.50;99.90;;;;;;4988983;28;20466;-68
2022/07/24 05:22:14;;;;;;;14.30;12.80;;;20.60;99.90;;;;;;4988670;28;20549;-68
2022/07/24 05:24:41;;;;;;;14.37;12.87;;;20.50;99.90;;;;;;4989550;28;20888;-70
2022/07/24 05:27:10;;;;;;;13.73;12.33;;;20.60;99.90;;;;;;4989262;28;20448;-68
2022/07/24 05:29:37;;;;;;;17.80;12.87;;;20.60;99.90;;;;;;4988832;28;20459;-68
2022/07/24 05:32:04;;;;;;;16.33;14.63;;;20.60;99.90;;;;;;4986413;28;20475;-69
2022/07/24 05:34:31;;;;;;;16.20;14.20;;;20.60;99.90;;;;;;4987849;28;20483;-68
2022/07/24 05:36:58;;;;;;;15.53;13.93;;;20.60;99.90;;;;;;4988613;28;20521;-68
2022/07/24 05:39:25;;;;;;;18.53;14.33;;;20.60;99.90;;;;;;4988383;28;20944;-68
2022/07/24 05:41:52;;;;;;;16.70;12.47;;;20.60;99.90;;;;;;4988015;28;20571;-68
2022/07/24 05:44:20;;;;;;;15.97;14.10;;;20.60;99.90;;;;;;4987361;28;20456;-68
2022/07/24 05:46:47;;;;;;;15.70;13.50;;;20.60;99.90;;;;;;4988462;28;20456;-68
2022/07/24 05:49:14;;;;;;;15.77;14.17;;;20.60;99.90;;;;;;4988352;28;20464;-68
2022/07/24 05:51:41;;;;;;;14.50;12.53;;;20.60;99.90;;;;;;4988407;28;20484;-68
2022/07/24 05:54:07;;;;;;;17.57;14.17;;;20.70;99.90;;;;;;4987445;28;20495;-68
2022/07/24 05:56:34;;;;;;;15.70;14.10;;;20.70;99.90;;;;;;4988387;28;20468;-68
2022/07/24 05:59:01;;;;;;;16.63;14.00;;;20.70;99.90;;;;;;4987915;28;20460;-70
2022/07/24 06:01:29;;;;;;;16.30;13.47;;;20.70;99.90;;;;;;4987896;28;20494;-75
2022/07/24 06:03:56;;;;;;;15.40;13.90;;;20.70;99.90;;;;;;4987710;28;20470;-76
2022/07/24 06:06:23;;;;;;;15.80;13.97;;;20.70;99.90;;;;;;4985277;28;20518;-75
2022/07/24 06:08:49;;;;;;;14.07;12.57;;;20.80;99.90;;;;;;4986447;28;20459;-75
2022/07/24 06:11:17;;;;;;;15.07;12.83;;;20.80;99.90;;;;;;4986691;28;20485;-76
2022/07/24 06:13:44;;;;;;;14.47;12.97;;;20.80;99.90;;;;;;4987012;28;20574;-75
2022/07/24 06:16:11;;;;;;;15.70;14.10;;;20.80;99.90;;;;;;4986045;28;20963;-76
2022/07/24 06:18:39;;;;;;;16.13;13.20;;;20.90;99.90;;;;;;4986043;28;20463;-76
2022/07/24 06:21:06;;;;;;;15.40;12.00;;;20.90;99.90;;;;;;4986828;28;20493;-76
2022/07/24 06:23:33;;;;;;;13.60;12.20;;;20.90;99.90;;;;;;4986721;28;20455;-76
2022/07/24 06:26:00;;;;;;;13.20;11.97;;;20.90;99.90;;;;;;4985868;28;20455;-76
2022/07/24 06:28:27;;;;;;;12.43;11.13;;;21.00;99.90;;;;;;4977701;28;20468;-75
2022/07/24 06:30:54;;;;;;;15.43;12.50;;;21.00;99.90;;;;;;4974771;28;20839;-75
2022/07/24 06:33:21;;;;;;;15.50;13.70;;;21.00;99.90;;;;;;4976487;28;20484;-76
2022/07/24 06:35:49;;;;;;;13.90;12.40;;;21.10;99.90;;;;;;4973963;28;20460;-76
2022/07/24 06:38:16;;;;;;;15.07;13.17;;;21.10;99.90;;;;;;4967572;28;20853;-76
2022/07/24 06:40:43;;;;;;;14.03;12.37;;;21.10;99.90;;;;;;4966750;28;20492;-75
2022/07/24 06:43:10;;;;;;;15.07;12.63;;;21.20;99.90;;;;;;4967621;28;20464;-76
2022/07/24 06:45:37;;;;;;;14.10;12.43;;;21.20;99.90;;;;;;4964968;28;20465;-76
2022/07/24 06:48:05;;;;;;;16.33;13.30;;;21.30;99.90;;;;;;4967675;28;20445;-76
2022/07/24 06:50:32;;;;;;;13.67;12.30;;;21.30;99.90;;;;;;4967587;28;20500;-76
2022/07/24 06:53:00;;;;;;;13.00;11.60;;;21.30;99.90;;;;;;4967311;28;20483;-76
2022/07/24 06:55:27;;;;;;;14.80;13.30;;;21.40;99.90;;;;;;4966899;28;20471;-77
2022/07/24 06:57:54;;;;;;;14.13;12.67;;;21.40;99.90;;;;;;4967428;28;20465;-76
2022/07/24 07:00:21;;;;;;;15.00;13.23;;;21.50;99.90;;;;;;4967250;28;20464;-76
2022/07/24 07:02:49;;;;;;;15.93;14.10;;;21.50;99.90;;;;;;4967701;28;20503;-76
2022/07/24 07:05:18;;;;;;;13.98;12.57;;;21.50;99.90;;;;;;4966521;28;20533;-76
2022/07/24 07:07:45;;;;;;;14.27;12.60;;;21.60;99.90;;;;;;4967398;28;20558;-76
2022/07/24 07:10:13;;;;;;;14.47;12.50;;;21.70;99.90;;;;;;4966983;28;20555;-76
2022/07/24 07:12:40;;;;;;;14.83;12.20;;;21.70;99.90;;;;;;4967168;28;20457;-76
2022/07/24 07:15:07;;;;;;;17.67;12.77;;;21.80;99.90;;;;;;4977588;28;20502;-76
2022/07/24 07:17:34;;;;;;;12.77;11.53;;;21.90;99.90;;;;;;4985667;28;20463;-76
2022/07/24 07:20:01;;;;;;;14.90;11.87;;;21.90;99.90;;;;;;4986605;28;20463;-76
2022/07/24 07:22:28;;;;;;;14.10;12.27;;;22.00;99.90;;;;;;4986736;28;20499;-74
2022/07/24 07:24:54;;;;;;;13.00;11.70;;;22.00;99.90;;;;;;4988499;28;20458;-75
2022/07/24 07:27:23;;;;;;;12.80;11.37;;;22.10;99.90;;;;;;4987961;28;20471;-75
2022/07/24 07:29:49;;;;;;;13.07;10.57;;;22.10;99.90;;;;;;4988361;28;20467;-74
2022/07/24 07:32:16;;;;;;;10.70;9.60;;;22.20;99.90;;;;;;4987934;28;20479;-75
2022/07/24 07:34:44;;;;;;;11.50;10.30;;;22.20;99.90;;;;;;4987938;28;20697;-75
2022/07/24 07:37:10;;;;;;;13.23;11.03;;;22.30;99.90;;;;;;4987182;28;20455;-75
2022/07/24 07:39:37;;;;;;;13.30;10.20;;;22.40;99.90;;;;;;4986521;28;20470;-75
2022/07/24 07:42:04;;;;;;;15.70;10.60;;;22.50;99.90;;;;;;4988258;28;20479;-75
2022/07/24 07:44:33;;;;;;;11.80;10.47;;;22.50;99.90;;;;;;4988084;28;20460;-75
2022/07/24 07:46:59;;;;;;;11.23;9.93;;;22.60;99.90;;;;;;4987915;28;20466;-75
2022/07/24 07:49:27;;;;;;;11.60;10.40;;;22.60;99.90;;;;;;4987935;28;20486;-74
2022/07/24 07:51:55;;;;;;;12.07;10.50;;;22.70;99.90;;;;;;4987446;28;20562;-75
2022/07/24 07:54:22;;;;;;;12.77;10.27;;;22.80;99.90;;;;;;4987191;28;20502;-75
2022/07/24 07:56:49;;;;;;;12.57;9.77;;;22.80;99.90;;;;;;4987908;28;20466;-75
2022/07/24 07:59:16;;;;;;;12.33;9.43;;;22.90;99.90;;;;;;4987185;28;20835;-75
2022/07/24 08:01:44;;;;;;;11.87;10.20;;;22.90;99.90;;;;;;4987434;28;21021;-75
2022/07/24 08:04:11;;;;;;;11.13;9.97;;;23.00;99.90;;;;;;4986982;28;20939;-75
2022/07/24 08:06:37;;;;;;;12.90;10.40;;;23.10;99.90;;;;;;4987975;28;20460;-75
2022/07/24 08:09:04;;;;;;;14.40;11.30;;;23.10;99.90;;;;;;4987548;28;20807;-75
2022/07/24 08:11:31;;;;;;;13.13;10.40;;;23.20;99.90;;;;;;4987499;28;21160;-75
2022/07/24 08:13:58;;;;;;;13.97;11.70;;;23.30;99.90;;;;;;4986882;28;20484;-75
2022/07/24 08:16:25;;;;;;;11.70;9.57;;;23.30;99.90;;;;;;4987342;28;20468;-75
2022/07/24 08:18:53;;;;;;;12.97;10.63;;;23.40;99.90;;;;;;4987782;28;20471;-75
2022/07/24 08:21:21;;;;;;;9.97;8.97;;;23.50;99.90;;;;;;4987672;28;20479;-75
2022/07/24 08:23:50;;;;;;;9.57;8.10;;;23.60;99.90;;;;;;4987694;28;20471;-75
2022/07/24 08:26:17;;;;;;;10.37;8.63;;;23.70;99.90;;;;;;4986595;28;21093;-75
2022/07/24 08:28:44;;;;;;;10.40;9.00;;;23.70;99.90;;;;;;4987184;28;20483;-75
2022/07/24 08:31:11;;;;;;;11.87;9.03;;;23.80;99.90;;;;;;4987142;28;20529;-75
2022/07/24 08:33:38;;;;;;;9.60;8.70;;;23.90;99.90;;;;;;4987136;28;20460;-75
2022/07/24 08:36:07;;;;;;;14.23;9.50;;;23.90;99.90;;;;;;4984914;28;20491;-75
2022/07/24 08:38:34;;;;;;;10.53;8.83;;;24.00;99.90;;;;;;4985940;28;20464;-75
2022/07/24 08:41:00;;;;;;;10.10;9.10;;;24.00;99.90;;;;;;4986175;28;20840;-75
2022/07/24 08:43:28;;;;;;;9.97;8.73;;;24.10;99.90;;;;;;4986866;28;20935;-75
2022/07/24 08:45:56;;;;;;;10.03;9.03;;;24.20;99.90;;;;;;4986473;28;20464;-75
2022/07/24 08:48:24;;;;;;;11.63;9.10;;;24.30;99.90;;;;;;4986458;28;20466;-75
2022/07/24 08:50:52;;;;;;;10.60;8.23;;;24.40;99.90;;;;;;4986540;28;20483;-75
2022/07/24 08:53:23;;;;;;;10.30;9.20;;;24.40;99.90;;;;;;4990628;28;20467;-75
2022/07/24 08:55:50;;;;;;;12.60;8.80;;;24.50;99.90;;;;;;4989695;28;20486;-75
2022/07/24 08:58:17;;;;;;;11.00;9.80;;;24.60;99.90;;;;;;4990286;28;20469;-75
2022/07/24 09:00:44;;;;;;;11.53;8.70;;;24.70;99.90;;;;;;4990386;28;20491;-75
2022/07/24 09:03:12;;;;;;;8.53;7.73;;;24.70;99.90;;;;;;4989995;28;20465;-75
2022/07/24 09:05:54;;;;;;;9.40;7.50;;;24.80;99.90;;;;;;4989759;28;20471;-75
2022/07/24 09:08:22;;;;;;;10.03;8.20;;;24.90;99.90;;;;;;4990130;28;20506;-75
2022/07/24 09:10:58;;;;;;;11.00;8.13;;;24.90;99.90;;;;;;4990079;28;20494;-75
2022/07/24 09:13:29;;;;;;;8.40;7.50;;;25.00;99.90;;;;;;4989844;28;20463;-75
2022/07/24 09:15:56;;;;;;;10.93;7.27;;;25.10;99.90;;;;;;4989490;28;20502;-75
2022/07/24 09:18:29;;;;;;;12.60;7.90;;;25.20;99.90;;;;;;4990155;28;20466;-75
2022/07/24 09:20:56;;;;;;;8.90;8.00;;;25.20;99.90;;;;;;4989685;28;20464;-75
2022/07/24 09:23:24;;;;;;;8.87;7.97;;;25.40;99.90;;;;;;4990063;28;20464;-75
2022/07/24 09:25:52;;;;;;;8.87;7.40;;;25.50;99.90;;;;;;4989738;28;20452;-75
2022/07/24 09:28:20;;;;;;;8.70;7.80;;;25.50;99.90;;;;;;4989926;28;20471;-75
2022/07/24 09:30:48;;;;;;;10.13;8.50;;;25.60;99.90;;;;;;4989973;28;20476;-75
2022/07/24 09:33:19;;;;;;;8.57;7.67;;;25.70;99.90;;;;;;4990016;28;20455;-75
2022/07/24 09:35:48;;;;;;;9.20;8.30;;;25.80;99.90;;;;;;4989055;28;20522;-75
2022/07/24 09:38:17;;;;;;;9.53;8.00;;;25.90;99.90;;;;;;4989370;28;20562;-76
2022/07/24 09:40:50;;;;;;;10.00;8.17;;;25.90;99.90;;;;;;4988778;28;20466;-76
2022/07/24 09:43:23;;;;;;;8.60;7.70;;;26.00;99.90;;;;;;4989758;28;20466;-75
2022/07/24 09:45:59;;;;;;;8.20;7.40;;;26.00;99.90;;;;;;4989292;28;20468;-75
2022/07/24 09:48:29;;;;;;;11.00;8.77;;;26.10;99.90;;;;;;4989608;28;20454;-75
2022/07/24 09:50:57;;;;;;;11.53;7.77;;;26.20;99.90;;;;;;4989835;28;20498;-75
2022/07/24 09:53:26;;;;;;;9.10;7.47;;;26.20;99.90;;;;;;4989774;28;20471;-75
2022/07/24 09:56:03;;;;;;;8.90;7.53;;;26.30;99.90;;;;;;4988885;28;21069;-75
2022/07/24 09:58:30;;;;;;;9.20;8.23;;;26.30;99.90;;;;;;4989895;28;20447;-75
2022/07/24 10:01:00;;;;;;;9.37;7.90;;;26.40;99.90;;;;;;4990155;28;21390;-75
2022/07/24 10:03:29;;;;;;;9.20;8.30;;;26.50;99.90;;;;;;4990071;28;20459;-75
2022/07/24 10:05:58;;;;;;;9.27;6.90;;;26.60;99.90;;;;;;4990048;28;20464;-75
2022/07/24 10:08:26;;;;;;;8.30;7.50;;;26.70;99.90;;;;;;4990535;28;20459;-77
2022/07/24 10:10:54;;;;;;;8.77;7.90;;;26.80;99.90;;;;;;4990575;28;20480;-76
2022/07/24 10:13:24;;;;;;;9.43;8.50;;;26.90;99.90;;;;;;4990223;28;20554;-76
2022/07/24 10:16:13;;;;;;;10.77;8.60;;;26.90;99.90;;;;;;4990079;28;20495;-76
2022/07/24 10:18:48;;;;;;;8.80;7.50;;;27.00;99.90;;;;;;4990501;28;20446;-76
2022/07/24 10:21:17;;;;;;;8.87;7.93;;;27.10;99.90;;;;;;4990164;28;20481;-76
2022/07/24 10:24:10;;;;;;;9.53;8.53;;;27.20;99.90;;;;;;4989933;28;20475;-76
2022/07/24 10:26:40;;;;;;;8.33;7.53;;;27.20;99.90;;;;;;4951276;28;20557;-77
2022/07/24 10:29:10;;;;;;;8.90;7.90;;;27.30;99.90;;;;;;4990360;28;20464;-76
2022/07/24 10:31:38;;;;;;;8.87;8.00;;;27.30;99.90;;;;;;4990210;28;20491;-76
2022/07/24 10:34:11;;;;;;;9.80;8.50;;;27.40;99.90;;;;;;4989276;28;20460;-76
2022/07/24 10:36:45;;;;;;;9.73;8.10;;;27.50;99.90;;;;;;4990042;28;20440;-76
2022/07/24 10:39:19;;;;;;;9.63;8.60;;;27.60;99.90;;;;;;4989945;28;20448;-76
2022/07/24 10:42:01;;;;;;;10.07;8.47;;;27.70;99.90;;;;;;4990264;28;20990;-75
2022/07/24 10:44:29;;;;;;;9.13;7.77;;;27.80;99.90;;;;;;4989071;28;20463;-76
2022/07/24 10:47:01;;;;;;;8.57;7.70;;;27.80;99.90;;;;;;4990247;28;20566;-76
2022/07/24 10:49:42;;;;;;;9.03;8.13;;;27.80;99.90;;;;;;4989383;28;20832;-76
2022/07/24 10:52:10;;;;;;;9.60;7.73;;;27.80;99.90;;;;;;4989499;28;20907;-76
2022/07/24 10:54:37;;;;;;;9.63;7.63;;;27.90;99.90;;;;;;4988794;28;20491;-76
2022/07/24 10:57:04;;;;;;;8.80;7.33;;;27.90;99.90;;;;;;4988972;28;20974;-76
2022/07/24 10:59:37;;;;;;;8.13;7.33;;;27.90;99.90;;;;;;4989370;28;20470;-76
2022/07/24 11:02:27;;;;;;;8.40;7.50;;;27.90;99.90;;;;;;4989016;28;20495;-76
2022/07/24 11:05:29;;;;;;;7.80;6.73;;;27.90;99.90;;;;;;4987686;28;20455;-76
2022/07/24 11:08:29;;;;;;;8.10;7.30;;;27.90;99.90;;;;;;4908819;29;20459;-76
2022/07/24 11:11:00;;;;;;;9.10;7.20;;;28.00;99.90;;;;;;4909107;29;20574;-76
2022/07/24 11:13:51;;;;;;;9.00;8.10;;;28.00;99.90;;;;;;4965452;28;20467;-76
2022/07/24 11:16:37;;;;;;;9.47;7.40;;;28.20;99.90;;;;;;4987771;28;20503;-75
2022/07/24 11:19:28;;;;;;;7.63;6.93;;;28.20;99.90;;;;;;4988278;28;20460;-75
2022/07/24 11:22:09;;;;;;;8.07;7.27;;;28.20;99.90;;;;;;4988219;28;20475;-74
2022/07/24 11:24:40;;;;;;;8.17;6.90;;;28.30;99.90;;;;;;4987716;28;20479;-74
2022/07/24 11:27:13;;;;;;;8.03;7.13;;;28.40;99.90;;;;;;4989206;28;20796;-74
2022/07/24 11:29:40;;;;;;;7.67;6.87;;;28.50;99.90;;;;;;4988471;28;20475;-75
2022/07/24 11:32:10;;;;;;;8.70;6.73;;;28.50;99.90;;;;;;4987701;28;20986;-75
2022/07/24 11:34:38;;;;;;;7.53;6.50;;;28.60;99.90;;;;;;4987568;28;20491;-74
2022/07/24 11:37:06;;;;;;;7.07;6.37;;;28.60;99.90;;;;;;4988135;28;20440;-75
2022/07/24 11:39:34;;;;;;;7.50;6.63;;;28.70;99.90;;;;;;4988113;28;20827;-75
2022/07/24 11:42:04;;;;;;;7.80;6.80;;;28.80;99.90;;;;;;4987962;28;20486;-75
2022/07/24 11:44:33;;;;;;;9.13;7.70;;;28.90;99.90;;;;;;4987165;28;20459;-75
2022/07/24 11:47:06;;;;;;;8.20;7.40;;;28.90;99.90;;;;;;4987847;28;21285;-75
2022/07/24 11:49:40;;;;;;;9.83;8.27;;;29.00;99.90;;;;;;4988219;28;20459;-75
2022/07/24 11:52:07;;;;;;;8.07;7.37;;;29.00;99.90;;;;;;4987752;28;20485;-75
2022/07/24 11:54:34;;;;;;;7.50;6.80;;;29.10;99.90;;;;;;4987307;28;20459;-75
2022/07/24 11:57:01;;;;;;;7.23;6.53;;;29.20;99.90;;;;;;4988247;28;20501;-75
2022/07/24 11:59:30;;;;;;;8.30;6.10;;;29.30;99.90;;;;;;4987448;28;20470;-74
2022/07/24 12:02:03;;;;;;;9.87;7.50;;;29.30;99.90;;;;;;4987446;28;20491;-74
2022/07/24 12:04:30;;;;;;;11.17;6.60;;;29.40;99.90;;;;;;4987396;28;20436;-75
2022/07/24 12:06:59;;;;;;;7.37;6.63;;;29.50;99.90;;;;;;4987664;28;20554;-75
2022/07/24 12:09:26;;;;;;;6.70;6.10;;;29.50;99.90;;;;;;4987565;28;20464;-75
2022/07/24 12:11:53;;;;;;;7.93;6.87;;;29.60;99.90;;;;;;4987725;28;20484;-75
2022/07/24 12:14:21;;;;;;;8.63;6.30;;;29.70;99.90;;;;;;4987300;28;20468;-75
2022/07/24 12:16:53;;;;;;;8.20;6.53;;;29.80;99.90;;;;;;4988945;28;20515;-75
2022/07/24 12:19:22;;;;;;;7.83;7.13;;;29.80;99.90;;;;;;4987773;28;20448;-75
2022/07/24 12:21:51;;;;;;;6.80;6.20;;;29.80;99.90;;;;;;4988307;28;20490;-75
2022/07/24 12:24:20;;;;;;;7.67;6.33;;;29.90;99.90;;;;;;4987685;28;20963;-75
2022/07/24 12:26:51;;;;;;;6.80;6.10;;;29.90;99.90;;;;;;4991230;28;20451;-75
2022/07/24 12:29:18;;;;;;;8.80;7.90;;;29.90;99.90;;;;;;4992293;28;20471;-75
2022/07/24 12:31:45;;;;;;;6.70;6.10;;;29.90;99.90;;;;;;4992334;28;20487;-75
2022/07/24 12:34:13;;;;;;;9.00;6.83;;;30.00;99.90;;;;;;4991734;28;20451;-75
2022/07/24 12:36:40;;;;;;;9.00;8.10;;;30.00;99.90;;;;;;4991922;28;21327;-75
2022/07/24 12:39:08;;;;;;;7.90;7.10;;;30.10;99.90;;;;;;4992108;28;20498;-75
2022/07/24 12:41:45;;;;;;;6.90;6.20;;;30.20;99.90;;;;;;4992117;28;20574;-75
2022/07/24 12:44:12;;;;;;;7.70;6.90;;;30.20;99.90;;;;;;4991908;28;20461;-75
2022/07/24 12:46:41;;;;;;;10.20;6.63;;;30.30;99.90;;;;;;4992006;28;20475;-74
2022/07/24 12:49:09;;;;;;;7.27;6.57;;;30.30;99.90;;;;;;4991238;28;20469;-74
2022/07/24 12:51:50;;;;;;;7.13;6.53;;;30.40;99.90;;;;;;4991562;28;20578;-74
2022/07/24 12:54:19;;;;;;;7.50;6.80;;;30.40;99.90;;;;;;4990667;28;20439;-74
2022/07/24 12:56:49;;;;;;;8.80;7.03;;;30.50;99.90;;;;;;4991690;28;20503;-75
2022/07/24 12:59:27;;;;;;;8.87;6.87;;;30.50;99.90;;;;;;4991966;28;20463;-74
2022/07/24 13:01:56;;;;;;;10.93;6.87;;;30.50;99.90;;;;;;4991709;28;21025;-74
2022/07/24 13:04:24;;;;;;;7.67;6.83;;;30.60;99.90;;;;;;4990900;28;20460;-74
2022/07/24 13:06:53;;;;;;;11.90;6.20;;;30.70;99.90;;;;;;4991536;28;20459;-75
2022/07/24 13:09:20;;;;;;;7.13;6.43;;;30.80;99.90;;;;;;4991407;28;20463;-74
2022/07/24 13:11:50;;;;;;;8.30;6.20;;;30.80;99.90;;;;;;4991839;28;20598;-74
2022/07/24 13:14:20;;;;;;;7.40;6.70;;;30.90;99.90;;;;;;4991314;28;20451;-74
2022/07/24 13:16:49;;;;;;;7.13;6.43;;;30.90;99.90;;;;;;4991238;28;20574;-74
2022/07/24 13:19:17;;;;;;;6.97;6.27;;;31.00;99.90;;;;;;4991435;28;20464;-75
2022/07/24 13:21:44;;;;;;;9.20;6.90;;;31.00;99.90;;;;;;4991873;28;20486;-74
2022/07/24 13:24:13;;;;;;;8.97;7.13;;;31.00;99.90;;;;;;4990896;28;20463;-75
2022/07/24 13:26:41;;;;;;;7.27;6.57;;;31.00;99.90;;;;;;4991516;28;20510;-75
2022/07/24 13:29:11;;;;;;;7.20;6.50;;;31.10;99.90;;;;;;4991629;28;20466;-74
2022/07/24 13:31:38;;;;;;;8.00;7.17;;;31.10;99.90;;;;;;4991609;28;20515;-74
2022/07/24 13:34:05;;;;;;;6.80;6.20;;;31.20;99.90;;;;;;4991364;28;20460;-74
2022/07/24 13:36:34;;;;;;;8.07;7.30;;;31.20;99.90;;;;;;4991044;28;20498;-74
2022/07/24 13:39:01;;;;;;;7.80;6.60;;;31.30;99.90;;;;;;4990587;28;20463;-74
2022/07/24 13:41:28;;;;;;;7.43;6.73;;;31.30;99.90;;;;;;4991559;28;20482;-74
2022/07/24 13:43:55;;;;;;;7.40;6.70;;;31.40;99.90;;;;;;4991480;28;20464;-74
2022/07/24 13:46:24;;;;;;;7.90;7.10;;;31.40;99.90;;;;;;4991767;28;20452;-74
2022/07/24 13:48:51;;;;;;;7.10;6.50;;;31.40;99.90;;;;;;4991692;28;20458;-74
2022/07/24 13:51:18;;;;;;;7.63;6.93;;;31.40;99.90;;;;;;4991477;28;20495;-74
2022/07/24 13:53:45;;;;;;;7.03;6.40;;;31.40;99.90;;;;;;4990925;28;20456;-74
2022/07/24 13:56:12;;;;;;;8.60;6.43;;;31.50;99.90;;;;;;4990636;28;20491;-74
2022/07/24 13:58:41;;;;;;;7.50;6.80;;;31.50;99.90;;;;;;4990926;28;20835;-75
2022/07/24 14:01:09;;;;;;;7.80;7.10;;;31.50;99.90;;;;;;4990397;28;21017;-74
2022/07/24 14:03:39;;;;;;;7.10;6.10;;;31.50;99.90;;;;;;4990443;28;21180;-74
2022/07/24 14:06:06;;;;;;;8.00;7.20;;;31.50;99.90;;;;;;4990979;28;20470;-74
2022/07/24 14:08:33;;;;;;;7.23;6.57;;;31.50;99.90;;;;;;4990840;28;20464;-74
2022/07/24 14:11:00;;;;;;;7.00;6.40;;;31.50;99.90;;;;;;4991217;28;20478;-74
2022/07/24 14:13:27;;;;;;;7.93;6.70;;;31.50;99.90;;;;;;4990989;28;20464;-74
2022/07/24 14:15:54;;;;;;;8.13;7.37;;;31.50;99.90;;;;;;4990336;28;20521;-74
2022/07/24 14:18:21;;;;;;;7.73;6.93;;;31.50;99.90;;;;;;4990349;28;20459;-74
2022/07/24 14:20:49;;;;;;;7.10;6.50;;;31.60;99.90;;;;;;4990208;28;20846;-74
2022/07/24 14:23:17;;;;;;;6.83;6.20;;;31.60;99.90;;;;;;4990130;28;20470;-74
2022/07/24 14:25:44;;;;;;;6.80;6.10;;;31.70;99.90;;;;;;4989997;28;20460;-74
2022/07/24 14:28:11;;;;;;;6.97;6.27;;;31.70;99.90;;;;;;4990455;28;20463;-74
2022/07/24 14:30:38;;;;;;;7.97;7.00;;;31.70;99.90;;;;;;4990983;28;20480;-74
2022/07/24 14:33:05;;;;;;;7.70;7.03;;;31.90;99.90;;;;;;4990801;28;20459;-75
2022/07/24 14:35:32;;;;;;;8.37;7.37;;;31.90;99.90;;;;;;4990256;28;20546;-74
2022/07/24 14:38:00;;;;;;;7.57;6.87;;;31.80;99.90;;;;;;4990380;28;20467;-75
2022/07/24 14:40:27;;;;;;;6.40;5.80;;;31.90;99.90;;;;;;4990515;28;20555;-75
2022/07/24 14:42:54;;;;;;;7.80;7.00;;;31.90;99.90;;;;;;4990185;28;20547;-75
2022/07/24 14:45:21;;;;;;;7.13;6.53;;;32.00;99.90;;;;;;4989722;28;20948;-75
2022/07/24 14:47:48;;;;;;;8.13;7.33;;;32.00;99.90;;;;;;4990214;28;20455;-75
2022/07/24 14:50:15;;;;;;;7.40;6.70;;;32.10;99.90;;;;;;4988672;28;20955;-75
2022/07/24 14:52:42;;;;;;;9.40;7.37;;;32.10;99.90;;;;;;4989754;28;20510;-75
2022/07/24 14:55:10;;;;;;;7.07;6.20;;;32.20;99.90;;;;;;4989822;28;20813;-75
2022/07/24 14:57:37;;;;;;;9.37;6.77;;;32.20;99.90;;;;;;4990016;28;20505;-75
2022/07/24 15:00:05;;;;;;;8.10;6.53;;;32.30;99.90;;;;;;4989942;28;20462;-75
2022/07/24 15:02:32;;;;;;;7.73;6.20;;;32.40;99.90;;;;;;4989736;28;20523;-75
2022/07/24 15:04:59;;;;;;;9.40;6.40;;;32.40;99.90;;;;;;4989347;28;20470;-75
2022/07/24 15:07:26;;;;;;;7.10;6.50;;;32.50;99.90;;;;;;4990023;28;20853;-74
2022/07/24 15:09:52;;;;;;;7.50;6.80;;;32.50;99.90;;;;;;4989397;28;20542;-74
2022/07/24 15:12:21;;;;;;;8.93;6.80;;;32.50;99.90;;;;;;4990148;28;20484;-75
2022/07/24 15:14:48;;;;;;;8.40;6.60;;;32.50;99.90;;;;;;4989082;28;20459;-75
2022/07/24 15:17:14;;;;;;;7.33;6.43;;;32.50;99.90;;;;;;4989559;28;20594;-74
2022/07/24 15:19:41;;;;;;;7.33;6.47;;;32.60;99.90;;;;;;4989426;28;20555;-74
2022/07/24 15:22:08;;;;;;;7.23;6.53;;;32.60;99.90;;;;;;4989188;28;20479;-74
2022/07/24 15:24:35;;;;;;;8.43;7.50;;;32.70;99.90;;;;;;4989661;28;20458;-74
2022/07/24 15:27:02;;;;;;;6.60;5.97;;;32.70;99.90;;;;;;4989641;28;20940;-74
2022/07/24 15:29:31;;;;;;;8.37;6.63;;;32.70;99.90;;;;;;4989587;28;20465;-74
2022/07/24 15:31:58;;;;;;;7.77;6.97;;;32.80;99.90;;;;;;4989253;28;20475;-74
2022/07/24 15:34:25;;;;;;;7.27;6.57;;;32.80;99.90;;;;;;4989555;28;20836;-74
2022/07/24 15:36:52;;;;;;;7.70;7.00;;;32.80;99.90;;;;;;4989062;28;21276;-74
2022/07/24 15:39:18;;;;;;;7.27;6.50;;;32.80;99.90;;;;;;4989175;28;20474;-74
2022/07/24 15:41:45;;;;;;;6.80;6.10;;;32.80;99.90;;;;;;4989671;28;20574;-74
2022/07/24 15:44:12;;;;;;;7.00;6.30;;;32.90;99.90;;;;;;4989056;28;20470;-75
2022/07/24 15:46:40;;;;;;;7.37;6.67;;;32.90;99.90;;;;;;4988969;28;20466;-75
2022/07/24 15:49:08;;;;;;;10.37;6.50;;;32.90;99.90;;;;;;4989289;28;20463;-75
2022/07/24 15:51:35;;;;;;;8.40;6.70;;;33.00;99.90;;;;;;4989275;28;20483;-74
2022/07/24 15:54:03;;;;;;;6.83;6.33;;;33.00;99.90;;;;;;4988575;28;20978;-75
2022/07/24 15:56:30;;;;;;;8.67;7.60;;;33.00;99.90;;;;;;4988193;28;20502;-75
2022/07/24 15:58:57;;;;;;;6.60;6.00;;;33.00;99.90;;;;;;4986170;28;20460;-71
2022/07/24 16:01:24;;;;;;;7.20;6.50;;;33.00;99.90;;;;;;4985680;28;20866;-71
2022/07/24 16:03:52;;;;;;;8.37;7.57;;;33.00;99.90;;;;;;4986070;28;20474;-75
2022/07/24 16:06:19;;;;;;;7.00;6.30;;;33.00;99.90;;;;;;4985211;28;20833;-75
2022/07/24 16:08:46;;;;;;;6.83;6.10;;;33.00;99.90;;;;;;4986234;28;20841;-75
2022/07/24 16:11:13;;;;;;;6.63;6.03;;;33.00;99.90;;;;;;4986284;28;20479;-76
2022/07/24 16:13:40;;;;;;;7.50;6.80;;;33.00;99.90;;;;;;4986010;28;20455;-76
2022/07/24 16:16:08;;;;;;;7.70;6.90;;;33.00;99.90;;;;;;4985343;28;20456;-72
2022/07/24 16:18:35;;;;;;;7.30;6.57;;;32.90;99.90;;;;;;4985860;28;20471;-71
2022/07/24 16:21:04;;;;;;;8.00;6.90;;;32.90;99.90;;;;;;4986074;28;20574;-72
2022/07/24 16:23:33;;;;;;;7.77;7.00;;;33.00;99.90;;;;;;4986165;28;20550;-73
2022/07/24 16:26:00;;;;;;;7.40;6.70;;;33.00;99.90;;;;;;4985114;28;20509;-72
2022/07/24 16:28:27;;;;;;;7.60;6.90;;;33.00;99.90;;;;;;4984242;28;20459;-72
2022/07/24 16:30:54;;;;;;;8.27;7.60;;;33.00;99.90;;;;;;4984792;28;20483;-74
2022/07/24 16:33:21;;;;;;;7.63;6.90;;;33.10;99.90;;;;;;4985046;28;20822;-75
2022/07/24 16:35:48;;;;;;;7.87;7.07;;;33.10;99.90;;;;;;4984206;28;20467;-75
2022/07/24 16:38:16;;;;;;;7.20;6.60;;;33.10;99.90;;;;;;4984390;28;21050;-76
2022/07/24 16:40:43;;;;;;;8.23;7.47;;;33.20;99.90;;;;;;4984578;28;20475;-75
2022/07/24 16:43:10;;;;;;;7.93;7.17;;;33.10;99.90;;;;;;4984905;28;20478;-75
2022/07/24 16:45:37;;;;;;;7.33;6.73;;;33.20;99.90;;;;;;4984431;28;20460;-75